sensor_id;sensor_type;location;lat;lon;timestamp;pressure;altitude;pressure_sealevel;temperature;humidity
55755;BME280;41674;52.290;-1.474;2023-03-19T00:00:39;100490.54;;;6.51;100.00
55755;BME280;41674;52.290;-1.474;2023-03-19T00:03:08;100482.82;;;7.17;97.50
55755;BME280;41674;52.290;-1.474;2023-03-19T00:05:38;100482.18;;;7.33;95.42
55755;BME280;41674;52.290;-1.474;2023-03-19T00:08:08;100480.98;;;7.10;95.93
55755;BME280;41674;52.290;-1.474;2023-03-19T00:10:38;100477.66;;;7.91;93.24
55755;BME280;41674;52.290;-1.474;2023-03-19T00:13:07;100478.71;;;7.17;93.48
55755;BME280;41674;52.290;-1.474;2023-03-19T00:15:36;100483.82;;;7.54;92.88
55755;BME280;41674;52.290;-1.474;2023-03-19T00:18:07;100500.70;;;7.64;91.39
55755;BME280;41674;52.290;-1.474;2023-03-19T00:20:36;100499.28;;;8.10;90.34
55755;BME280;41674;52.290;-1.474;2023-03-19T00:23:06;100496.45;;;7.53;92.01
55755;BME280;41674;52.290;-1.474;2023-03-19T00:25:35;100498.17;;;7.87;91.94
55755;BME280;41674;52.290;-1.474;2023-03-19T00:28:05;100488.65;;;7.85;91.60
55755;BME280;41674;52.290;-1.474;2023-03-19T00:30:35;100482.72;;;8.01;90.83
55755;BME280;41674;52.290;-1.474;2023-03-19T00:33:04;100486.81;;;7.36;92.72
55755;BME280;41674;52.290;-1.474;2023-03-19T00:35:34;100493.66;;;7.43;93.32
55755;BME280;41674;52.290;-1.474;2023-03-19T00:38:03;100486.05;;;7.44;92.21
55755;BME280;41674;52.290;-1.474;2023-03-19T00:40:33;100483.27;;;8.09;88.71
55755;BME280;41674;52.290;-1.474;2023-03-19T00:43:03;100489.76;;;8.25;86.56
55755;BME280;41674;52.290;-1.474;2023-03-19T00:45:32;100496.22;;;7.32;89.24
55755;BME280;41674;52.290;-1.474;2023-03-19T00:48:02;100497.11;;;7.25;89.78
55755;BME280;41674;52.290;-1.474;2023-03-19T00:50:31;100495.27;;;7.07;90.00
55755;BME280;41674;52.290;-1.474;2023-03-19T00:53:01;100502.58;;;6.08;94.49
55755;BME280;41674;52.290;-1.474;2023-03-19T00:55:31;100499.83;;;6.36;94.36
55755;BME280;41674;52.290;-1.474;2023-03-19T00:58:00;100508.36;;;6.69;91.89
55755;BME280;41674;52.290;-1.474;2023-03-19T01:00:30;100514.85;;;5.83;94.77
55755;BME280;41674;52.290;-1.474;2023-03-19T01:03:00;100528.70;;;4.86;100.00
55755;BME280;41674;52.290;-1.474;2023-03-19T01:05:30;100532.31;;;4.91;100.00
55755;BME280;41674;52.290;-1.474;2023-03-19T01:07:59;100527.78;;;4.70;100.00
55755;BME280;41674;52.290;-1.474;2023-03-19T01:10:31;100524.81;;;3.86;100.00
55755;BME280;41674;52.290;-1.474;2023-03-19T01:12:58;100530.26;;;4.13;100.00
55755;BME280;41674;52.290;-1.474;2023-03-19T01:15:28;100524.82;;;3.80;100.00
55755;BME280;41674;52.290;-1.474;2023-03-19T01:17:58;100528.38;;;3.74;100.00
55755;BME280;41674;52.290;-1.474;2023-03-19T01:20:27;100531.21;;;3.24;100.00
55755;BME280;41674;52.290;-1.474;2023-03-19T01:22:57;100533.73;;;3.40;100.00
55755;BME280;41674;52.290;-1.474;2023-03-19T01:25:27;100544.68;;;3.25;100.00
55755;BME280;41674;52.290;-1.474;2023-03-19T01:27:56;100546.02;;;3.31;100.00
55755;BME280;41674;52.290;-1.474;2023-03-19T01:30:27;100539.82;;;3.71;100.00
55755;BME280;41674;52.290;-1.474;2023-03-19T01:32:56;100546.96;;;3.17;100.00
55755;BME280;41674;52.290;-1.474;2023-03-19T01:35:25;100546.21;;;3.86;100.00
55755;BME280;41674;52.290;-1.474;2023-03-19T01:37:55;100554.62;;;3.29;100.00
55755;BME280;41674;52.290;-1.474;2023-03-19T01:40:24;100555.47;;;2.85;100.00
55755;BME280;41674;52.290;-1.474;2023-03-19T01:42:56;100559.46;;;3.03;100.00
55755;BME280;41674;52.290;-1.474;2023-03-19T01:45:31;100563.89;;;3.08;100.00
55755;BME280;41674;52.290;-1.474;2023-03-19T01:47:53;100560.89;;;3.04;100.00
55755;BME280;41674;52.290;-1.474;2023-03-19T01:50:26;100572.29;;;2.98;100.00
55755;BME280;41674;52.290;-1.474;2023-03-19T01:52:53;100579.31;;;3.11;100.00
55755;BME280;41674;52.290;-1.474;2023-03-19T01:55:23;100575.89;;;3.07;100.00
55755;BME280;41674;52.290;-1.474;2023-03-19T01:57:53;100579.34;;;3.28;100.00
55755;BME280;41674;52.290;-1.474;2023-03-19T02:00:22;100580.06;;;3.25;100.00
55755;BME280;41674;52.290;-1.474;2023-03-19T02:02:52;100576.45;;;3.34;100.00
55755;BME280;41674;52.290;-1.474;2023-03-19T02:05:22;100570.63;;;3.71;100.00
55755;BME280;41674;52.290;-1.474;2023-03-19T02:07:52;100573.64;;;3.14;100.00
55755;BME280;41674;52.290;-1.474;2023-03-19T02:10:22;100574.87;;;2.89;100.00
55755;BME280;41674;52.290;-1.474;2023-03-19T02:12:51;100573.55;;;3.51;100.00
55755;BME280;41674;52.290;-1.474;2023-03-19T02:15:20;100567.43;;;3.83;100.00
55755;BME280;41674;52.290;-1.474;2023-03-19T02:17:50;100569.43;;;3.23;100.00
55755;BME280;41674;52.290;-1.474;2023-03-19T02:20:25;100569.64;;;3.52;100.00
55755;BME280;41674;52.290;-1.474;2023-03-19T02:22:55;100566.77;;;3.73;100.00
55755;BME280;41674;52.290;-1.474;2023-03-19T02:25:23;100566.10;;;3.73;100.00
55755;BME280;41674;52.290;-1.474;2023-03-19T02:27:49;100565.51;;;3.75;100.00
55755;BME280;41674;52.290;-1.474;2023-03-19T02:30:24;100563.30;;;3.52;100.00
55755;BME280;41674;52.290;-1.474;2023-03-19T02:32:48;100565.93;;;3.02;100.00
55755;BME280;41674;52.290;-1.474;2023-03-19T02:35:18;100577.57;;;3.05;100.00
55755;BME280;41674;52.290;-1.474;2023-03-19T02:37:47;100577.81;;;3.57;100.00
55755;BME280;41674;52.290;-1.474;2023-03-19T02:40:21;100578.90;;;2.62;100.00
55755;BME280;41674;52.290;-1.474;2023-03-19T02:42:47;100578.55;;;2.81;100.00
55755;BME280;41674;52.290;-1.474;2023-03-19T02:45:17;100574.35;;;3.09;100.00
55755;BME280;41674;52.290;-1.474;2023-03-19T02:47:46;100571.94;;;3.49;99.77
55755;BME280;41674;52.290;-1.474;2023-03-19T02:50:16;100579.42;;;3.28;100.00
55755;BME280;41674;52.290;-1.474;2023-03-19T02:52:45;100574.73;;;3.40;98.92
55755;BME280;41674;52.290;-1.474;2023-03-19T02:55:15;100577.27;;;3.69;98.34
55755;BME280;41674;52.290;-1.474;2023-03-19T02:57:45;100578.34;;;4.01;95.62
55755;BME280;41674;52.290;-1.474;2023-03-19T03:00:15;100583.50;;;4.70;92.77
55755;BME280;41674;52.290;-1.474;2023-03-19T03:02:44;100581.55;;;4.21;92.72
55755;BME280;41674;52.290;-1.474;2023-03-19T03:05:14;100589.12;;;4.39;90.66
55755;BME280;41674;52.290;-1.474;2023-03-19T03:07:43;100590.37;;;4.01;92.48
55755;BME280;41674;52.290;-1.474;2023-03-19T03:10:13;100588.84;;;4.36;92.60
55755;BME280;41674;52.290;-1.474;2023-03-19T03:12:43;100593.47;;;4.65;91.56
55755;BME280;41674;52.290;-1.474;2023-03-19T03:15:12;100597.02;;;4.49;91.82
55755;BME280;41674;52.290;-1.474;2023-03-19T03:17:43;100607.04;;;4.59;89.57
55755;BME280;41674;52.290;-1.474;2023-03-19T03:20:14;100616.24;;;4.57;89.43
55755;BME280;41674;52.290;-1.474;2023-03-19T03:22:41;100618.61;;;4.84;87.47
55755;BME280;41674;52.290;-1.474;2023-03-19T03:25:11;100623.70;;;4.88;87.54
55755;BME280;41674;52.290;-1.474;2023-03-19T03:27:41;100630.31;;;4.04;91.24
55755;BME280;41674;52.290;-1.474;2023-03-19T03:30:12;100635.46;;;3.86;91.80
55755;BME280;41674;52.290;-1.474;2023-03-19T03:32:40;100636.96;;;4.82;89.69
55755;BME280;41674;52.290;-1.474;2023-03-19T03:35:10;100645.41;;;4.96;87.19
55755;BME280;41674;52.290;-1.474;2023-03-19T03:37:39;100652.22;;;5.03;85.72
55755;BME280;41674;52.290;-1.474;2023-03-19T03:40:10;100650.94;;;5.56;84.26
55755;BME280;41674;52.290;-1.474;2023-03-19T03:42:39;100652.71;;;5.97;82.72
55755;BME280;41674;52.290;-1.474;2023-03-19T03:45:10;100654.04;;;5.92;81.80
55755;BME280;41674;52.290;-1.474;2023-03-19T03:47:38;100653.57;;;6.61;79.97
55755;BME280;41674;52.290;-1.474;2023-03-19T03:50:08;100660.40;;;6.22;80.42
55755;BME280;41674;52.290;-1.474;2023-03-19T03:52:38;100660.02;;;6.83;78.29
55755;BME280;41674;52.290;-1.474;2023-03-19T03:55:08;100669.12;;;6.10;79.36
55755;BME280;41674;52.290;-1.474;2023-03-19T03:57:37;100670.03;;;6.35;78.68
55755;BME280;41674;52.290;-1.474;2023-03-19T04:00:08;100673.85;;;6.30;79.65
55755;BME280;41674;52.290;-1.474;2023-03-19T04:02:36;100678.30;;;5.88;80.96
55755;BME280;41674;52.290;-1.474;2023-03-19T04:05:06;100684.76;;;6.03;79.94
55755;BME280;41674;52.290;-1.474;2023-03-19T04:07:36;100688.08;;;6.31;78.85
55755;BME280;41674;52.290;-1.474;2023-03-19T04:10:05;100685.54;;;6.59;78.06
55755;BME280;41674;52.290;-1.474;2023-03-19T04:12:35;100685.55;;;6.65;77.84
55755;BME280;41674;52.290;-1.474;2023-03-19T04:15:05;100691.42;;;6.45;78.12
55755;BME280;41674;52.290;-1.474;2023-03-19T04:17:34;100695.70;;;6.47;78.16
55755;BME280;41674;52.290;-1.474;2023-03-19T04:20:04;100701.18;;;5.97;78.64
55755;BME280;41674;52.290;-1.474;2023-03-19T04:22:33;100699.52;;;6.07;79.31
55755;BME280;41674;52.290;-1.474;2023-03-19T04:25:03;100692.29;;;6.45;77.87
55755;BME280;41674;52.290;-1.474;2023-03-19T04:27:32;100696.02;;;5.91;78.81
55755;BME280;41674;52.290;-1.474;2023-03-19T04:30:03;100699.31;;;6.31;78.01
55755;BME280;41674;52.290;-1.474;2023-03-19T04:32:32;100701.45;;;5.59;81.34
55755;BME280;41674;52.290;-1.474;2023-03-19T04:35:01;100702.67;;;5.29;82.65
55755;BME280;41674;52.290;-1.474;2023-03-19T04:37:31;100707.71;;;4.64;84.31
55755;BME280;41674;52.290;-1.474;2023-03-19T04:40:00;100714.68;;;4.74;84.66
55755;BME280;41674;52.290;-1.474;2023-03-19T04:42:30;100712.35;;;4.65;87.12
55755;BME280;41674;52.290;-1.474;2023-03-19T04:45:00;100715.16;;;4.30;88.37
55755;BME280;41674;52.290;-1.474;2023-03-19T04:47:30;100720.98;;;3.42;93.24
55755;BME280;41674;52.290;-1.474;2023-03-19T04:49:59;100718.19;;;3.65;91.55
55755;BME280;41674;52.290;-1.474;2023-03-19T04:52:29;100724.07;;;4.09;91.85
55755;BME280;41674;52.290;-1.474;2023-03-19T04:54:59;100723.39;;;3.74;90.83
55755;BME280;41674;52.290;-1.474;2023-03-19T04:57:29;100723.78;;;3.92;90.33
55755;BME280;41674;52.290;-1.474;2023-03-19T04:59:58;100721.83;;;3.82;91.04
55755;BME280;41674;52.290;-1.474;2023-03-19T05:02:28;100718.95;;;3.76;90.30
55755;BME280;41674;52.290;-1.474;2023-03-19T05:04:57;100719.63;;;4.18;89.21
55755;BME280;41674;52.290;-1.474;2023-03-19T05:07:27;100718.99;;;4.08;89.12
55755;BME280;41674;52.290;-1.474;2023-03-19T05:09:57;100722.85;;;4.35;88.13
55755;BME280;41674;52.290;-1.474;2023-03-19T05:12:26;100727.02;;;4.27;88.34
55755;BME280;41674;52.290;-1.474;2023-03-19T05:14:57;100728.74;;;2.95;92.27
55755;BME280;41674;52.290;-1.474;2023-03-19T05:17:26;100731.25;;;3.28;91.56
55755;BME280;41674;52.290;-1.474;2023-03-19T05:19:56;100730.53;;;3.37;93.70
55755;BME280;41674;52.290;-1.474;2023-03-19T05:22:25;100728.45;;;3.71;90.38
55755;BME280;41674;52.290;-1.474;2023-03-19T05:24:55;100733.27;;;4.47;87.73
55755;BME280;41674;52.290;-1.474;2023-03-19T05:27:24;100734.58;;;4.05;87.68
55755;BME280;41674;52.290;-1.474;2023-03-19T05:29:59;100737.05;;;4.90;84.20
55755;BME280;41674;52.290;-1.474;2023-03-19T05:32:24;100740.95;;;5.52;82.13
55755;BME280;41674;52.290;-1.474;2023-03-19T05:34:54;100744.98;;;5.33;81.13
55755;BME280;41674;52.290;-1.474;2023-03-19T05:37:24;100750.33;;;5.63;80.76
55755;BME280;41674;52.290;-1.474;2023-03-19T05:39:53;100751.60;;;5.85;79.03
55755;BME280;41674;52.290;-1.474;2023-03-19T05:42:23;100754.10;;;5.74;78.84
55755;BME280;41674;52.290;-1.474;2023-03-19T05:44:52;100755.66;;;5.47;79.70
55755;BME280;41674;52.290;-1.474;2023-03-19T05:47:22;100762.94;;;5.09;80.73
55755;BME280;41674;52.290;-1.474;2023-03-19T05:49:52;100772.56;;;4.34;84.08
55755;BME280;41674;52.290;-1.474;2023-03-19T05:52:21;100770.28;;;4.42;85.14
55755;BME280;41674;52.290;-1.474;2023-03-19T05:54:51;100773.36;;;3.55;88.28
55755;BME280;41674;52.290;-1.474;2023-03-19T05:57:20;100772.43;;;3.70;88.43
55755;BME280;41674;52.290;-1.474;2023-03-19T05:59:50;100776.33;;;3.90;89.01
55755;BME280;41674;52.290;-1.474;2023-03-19T06:02:20;100777.98;;;4.29;86.53
55755;BME280;41674;52.290;-1.474;2023-03-19T06:04:50;100783.65;;;4.35;85.81
55755;BME280;41674;52.290;-1.474;2023-03-19T06:07:19;100790.66;;;3.77;86.70
55755;BME280;41674;52.290;-1.474;2023-03-19T06:09:49;100792.10;;;4.50;84.33
55755;BME280;41674;52.290;-1.474;2023-03-19T06:12:19;100798.06;;;4.58;84.50
55755;BME280;41674;52.290;-1.474;2023-03-19T06:14:48;100804.11;;;4.29;83.87
55755;BME280;41674;52.290;-1.474;2023-03-19T06:17:18;100807.34;;;4.62;82.86
55755;BME280;41674;52.290;-1.474;2023-03-19T06:19:48;100810.05;;;4.03;83.77
55755;BME280;41674;52.290;-1.474;2023-03-19T06:22:17;100811.58;;;4.33;83.53
55755;BME280;41674;52.290;-1.474;2023-03-19T06:24:47;100813.60;;;4.99;82.73
55755;BME280;41674;52.290;-1.474;2023-03-19T06:27:17;100816.74;;;5.11;82.24
55755;BME280;41674;52.290;-1.474;2023-03-19T06:29:46;100821.86;;;4.88;81.79
55755;BME280;41674;52.290;-1.474;2023-03-19T06:32:16;100822.24;;;5.52;80.38
55755;BME280;41674;52.290;-1.474;2023-03-19T06:34:46;100829.10;;;4.77;81.45
55755;BME280;41674;52.290;-1.474;2023-03-19T06:37:15;100828.93;;;4.62;81.98
55755;BME280;41674;52.290;-1.474;2023-03-19T06:39:45;100833.70;;;3.76;85.50
55755;BME280;41674;52.290;-1.474;2023-03-19T06:42:15;100839.66;;;3.60;87.13
55755;BME280;41674;52.290;-1.474;2023-03-19T06:44:45;100843.41;;;4.38;85.09
55755;BME280;41674;52.290;-1.474;2023-03-19T06:47:14;100850.19;;;3.48;88.07
55755;BME280;41674;52.290;-1.474;2023-03-19T06:49:44;100850.78;;;3.79;87.88
55755;BME280;41674;52.290;-1.474;2023-03-19T06:52:15;100848.70;;;3.92;87.80
55755;BME280;41674;52.290;-1.474;2023-03-19T06:54:44;100848.29;;;3.83;88.10
55755;BME280;41674;52.290;-1.474;2023-03-19T06:57:14;100845.64;;;4.29;87.06
55755;BME280;41674;52.290;-1.474;2023-03-19T06:59:43;100850.39;;;4.49;85.89
55755;BME280;41674;52.290;-1.474;2023-03-19T07:02:12;100854.29;;;4.71;85.74
55755;BME280;41674;52.290;-1.474;2023-03-19T07:04:42;100856.73;;;4.33;85.99
55755;BME280;41674;52.290;-1.474;2023-03-19T07:07:12;100863.10;;;4.76;85.16
55755;BME280;41674;52.290;-1.474;2023-03-19T07:09:42;100864.09;;;5.00;83.60
55755;BME280;41674;52.290;-1.474;2023-03-19T07:12:12;100864.08;;;4.30;84.36
55755;BME280;41674;52.290;-1.474;2023-03-19T07:14:41;100860.43;;;5.39;83.29
55755;BME280;41674;52.290;-1.474;2023-03-19T07:17:11;100860.74;;;4.97;84.91
55755;BME280;41674;52.290;-1.474;2023-03-19T07:19:40;100867.05;;;4.67;86.94
55755;BME280;41674;52.290;-1.474;2023-03-19T07:22:10;100869.65;;;3.71;91.09
55755;BME280;41674;52.290;-1.474;2023-03-19T07:24:40;100876.25;;;3.74;92.17
55755;BME280;41674;52.290;-1.474;2023-03-19T07:27:10;100879.06;;;3.28;92.19
55755;BME280;41674;52.290;-1.474;2023-03-19T07:29:39;100880.90;;;3.79;91.53
55755;BME280;41674;52.290;-1.474;2023-03-19T07:32:09;100880.76;;;3.80;90.62
55755;BME280;41674;52.290;-1.474;2023-03-19T07:34:39;100883.45;;;3.98;89.18
55755;BME280;41674;52.290;-1.474;2023-03-19T07:37:13;100881.72;;;5.33;86.41
55755;BME280;41674;52.290;-1.474;2023-03-19T07:39:38;100885.04;;;5.77;83.39
55755;BME280;41674;52.290;-1.474;2023-03-19T07:42:08;100886.91;;;4.79;86.63
55755;BME280;41674;52.290;-1.474;2023-03-19T07:44:37;100887.20;;;5.03;85.82
55755;BME280;41674;52.290;-1.474;2023-03-19T07:47:07;100891.10;;;4.96;86.97
55755;BME280;41674;52.290;-1.474;2023-03-19T07:49:37;100895.77;;;5.16;85.50
55755;BME280;41674;52.290;-1.474;2023-03-19T07:52:07;100903.34;;;5.16;86.27
55755;BME280;41674;52.290;-1.474;2023-03-19T07:54:36;100909.42;;;5.34;85.30
55755;BME280;41674;52.290;-1.474;2023-03-19T07:57:06;100913.30;;;4.89;88.17
55755;BME280;41674;52.290;-1.474;2023-03-19T07:59:35;100909.86;;;4.85;87.44
55755;BME280;41674;52.290;-1.474;2023-03-19T08:02:05;100915.49;;;4.96;87.96
55755;BME280;41674;52.290;-1.474;2023-03-19T08:04:35;100922.52;;;4.36;90.78
55755;BME280;41674;52.290;-1.474;2023-03-19T08:07:04;100924.82;;;4.50;89.08
55755;BME280;41674;52.290;-1.474;2023-03-19T08:09:34;100930.99;;;5.28;87.38
55755;BME280;41674;52.290;-1.474;2023-03-19T08:12:04;100937.52;;;4.95;88.84
55755;BME280;41674;52.290;-1.474;2023-03-19T08:14:33;100939.65;;;5.16;88.49
55755;BME280;41674;52.290;-1.474;2023-03-19T08:17:03;100936.47;;;5.27;86.30
55755;BME280;41674;52.290;-1.474;2023-03-19T08:19:33;100934.79;;;5.96;85.07
55755;BME280;41674;52.290;-1.474;2023-03-19T08:22:02;100944.70;;;5.50;84.52
55755;BME280;41674;52.290;-1.474;2023-03-19T08:24:32;100949.99;;;5.58;85.12
55755;BME280;41674;52.290;-1.474;2023-03-19T08:27:02;100955.80;;;5.14;85.10
55755;BME280;41674;52.290;-1.474;2023-03-19T08:29:31;100961.69;;;5.00;88.68
55755;BME280;41674;52.290;-1.474;2023-03-19T08:32:01;100961.03;;;4.94;87.83
55755;BME280;41674;52.290;-1.474;2023-03-19T08:34:32;100961.76;;;5.48;86.88
55755;BME280;41674;52.290;-1.474;2023-03-19T08:37:01;100967.03;;;5.35;88.01
55755;BME280;41674;52.290;-1.474;2023-03-19T08:39:30;100973.37;;;5.53;86.47
55755;BME280;41674;52.290;-1.474;2023-03-19T08:41:59;100977.32;;;5.33;86.46
55755;BME280;41674;52.290;-1.474;2023-03-19T08:44:29;100981.31;;;5.86;84.15
55755;BME280;41674;52.290;-1.474;2023-03-19T08:46:59;100979.89;;;6.02;86.29
55755;BME280;41674;52.290;-1.474;2023-03-19T08:49:29;100980.66;;;5.50;84.88
55755;BME280;41674;52.290;-1.474;2023-03-19T08:51:58;100987.96;;;5.67;86.26
55755;BME280;41674;52.290;-1.474;2023-03-19T08:54:28;100993.24;;;5.70;87.24
55755;BME280;41674;52.290;-1.474;2023-03-19T08:56:59;100994.70;;;5.49;87.22
55755;BME280;41674;52.290;-1.474;2023-03-19T08:59:27;101001.07;;;5.13;89.81
55755;BME280;41674;52.290;-1.474;2023-03-19T09:01:57;100997.61;;;6.00;85.39
55755;BME280;41674;52.290;-1.474;2023-03-19T09:04:27;100996.21;;;5.32;87.88
55755;BME280;41674;52.290;-1.474;2023-03-19T09:06:56;101001.05;;;5.43;88.79
55755;BME280;41674;52.290;-1.474;2023-03-19T09:09:25;101004.11;;;5.58;88.68
55755;BME280;41674;52.290;-1.474;2023-03-19T09:11:55;101004.99;;;5.61;88.80
55755;BME280;41674;52.290;-1.474;2023-03-19T09:14:25;101000.11;;;6.66;85.79
55755;BME280;41674;52.290;-1.474;2023-03-19T09:16:54;100996.57;;;6.55;86.07
55755;BME280;41674;52.290;-1.474;2023-03-19T09:19:24;100997.22;;;6.50;85.86
55755;BME280;41674;52.290;-1.474;2023-03-19T09:21:54;101004.15;;;6.34;83.37
55755;BME280;41674;52.290;-1.474;2023-03-19T09:24:23;101006.40;;;6.85;82.62
55755;BME280;41674;52.290;-1.474;2023-03-19T09:26:53;101014.76;;;6.50;82.56
55755;BME280;41674;52.290;-1.474;2023-03-19T09:29:23;101011.25;;;6.96;81.61
55755;BME280;41674;52.290;-1.474;2023-03-19T09:31:52;101012.71;;;7.19;80.38
55755;BME280;41674;52.290;-1.474;2023-03-19T09:34:22;101018.03;;;7.75;79.78
55755;BME280;41674;52.290;-1.474;2023-03-19T09:36:51;101021.56;;;6.82;81.03
55755;BME280;41674;52.290;-1.474;2023-03-19T09:39:21;101030.79;;;6.81;83.01
55755;BME280;41674;52.290;-1.474;2023-03-19T09:42:04;101026.50;;;7.52;82.23
55755;BME280;41674;52.290;-1.474;2023-03-19T09:44:26;101026.09;;;6.61;86.93
55755;BME280;41674;52.290;-1.474;2023-03-19T09:46:55;101026.88;;;7.38;84.08
55755;BME280;41674;52.290;-1.474;2023-03-19T09:49:23;101028.01;;;6.84;85.21
55755;BME280;41674;52.290;-1.474;2023-03-19T09:51:52;101035.47;;;6.36;87.09
55755;BME280;41674;52.290;-1.474;2023-03-19T09:54:26;101038.72;;;6.31;86.16
55755;BME280;41674;52.290;-1.474;2023-03-19T09:56:49;101037.81;;;6.14;90.82
55755;BME280;41674;52.290;-1.474;2023-03-19T09:59:19;101037.99;;;6.29;90.99
55755;BME280;41674;52.290;-1.474;2023-03-19T10:01:56;101034.40;;;6.50;89.55
55755;BME280;41674;52.290;-1.474;2023-03-19T10:04:31;101034.25;;;6.53;87.43
55755;BME280;41674;52.290;-1.474;2023-03-19T10:06:47;101039.50;;;6.24;87.96
55755;BME280;41674;52.290;-1.474;2023-03-19T10:09:31;101040.31;;;5.87;91.67
55755;BME280;41674;52.290;-1.474;2023-03-19T10:11:55;101043.85;;;6.22;91.63
55755;BME280;41674;52.290;-1.474;2023-03-19T10:16:48;101042.81;;;7.01;86.15
55755;BME280;41674;52.290;-1.474;2023-03-19T10:19:18;101043.94;;;7.12;82.91
55755;BME280;41674;52.290;-1.474;2023-03-19T10:21:48;101046.52;;;7.91;82.43
55755;BME280;41674;52.290;-1.474;2023-03-19T10:24:20;101044.73;;;7.67;85.56
55755;BME280;41674;52.290;-1.474;2023-03-19T10:26:44;101047.55;;;7.45;83.59
55755;BME280;41674;52.290;-1.474;2023-03-19T10:29:17;101043.86;;;7.24;84.55
55755;BME280;41674;52.290;-1.474;2023-03-19T10:31:50;101043.97;;;6.53;84.67
55755;BME280;41674;52.290;-1.474;2023-03-19T10:34:24;101034.87;;;7.37;85.25
55755;BME280;41674;52.290;-1.474;2023-03-19T10:36:43;101034.65;;;7.45;86.78
55755;BME280;41674;52.290;-1.474;2023-03-19T10:39:14;101037.36;;;7.57;86.21
55755;BME280;41674;52.290;-1.474;2023-03-19T10:41:48;101035.91;;;8.08;81.49
55755;BME280;41674;52.290;-1.474;2023-03-19T10:44:19;101040.40;;;7.65;84.48
55755;BME280;41674;52.290;-1.474;2023-03-19T10:46:42;101048.09;;;7.65;85.66
55755;BME280;41674;52.290;-1.474;2023-03-19T10:49:11;101047.53;;;8.02;83.13
55755;BME280;41674;52.290;-1.474;2023-03-19T10:51:43;101045.90;;;7.82;82.98
55755;BME280;41674;52.290;-1.474;2023-03-19T10:54:17;101046.01;;;7.44;82.99
55755;BME280;41674;52.290;-1.474;2023-03-19T10:56:45;101046.39;;;7.16;82.22
55755;BME280;41674;52.290;-1.474;2023-03-19T10:59:21;101052.70;;;7.48;82.80
55755;BME280;41674;52.290;-1.474;2023-03-19T11:01:40;101061.28;;;6.94;85.13
55755;BME280;41674;52.290;-1.474;2023-03-19T11:04:12;101060.14;;;7.40;81.57
55755;BME280;41674;52.290;-1.474;2023-03-19T11:06:38;101069.76;;;7.02;86.92
55755;BME280;41674;52.290;-1.474;2023-03-19T11:09:17;101072.23;;;6.64;88.65
55755;BME280;41674;52.290;-1.474;2023-03-19T11:11:43;101078.03;;;6.89;88.76
55755;BME280;41674;52.290;-1.474;2023-03-19T11:14:11;101085.74;;;6.29;87.58
55755;BME280;41674;52.290;-1.474;2023-03-19T11:16:47;101085.38;;;6.17;89.60
55755;BME280;41674;52.290;-1.474;2023-03-19T11:19:16;101091.24;;;6.05;93.48
55755;BME280;41674;52.290;-1.474;2023-03-19T11:21:36;101090.42;;;7.01;90.62
55755;BME280;41674;52.290;-1.474;2023-03-19T11:24:11;101084.42;;;6.79;90.84
55755;BME280;41674;52.290;-1.474;2023-03-19T11:26:35;101090.01;;;6.74;87.46
55755;BME280;41674;52.290;-1.474;2023-03-19T11:29:05;101095.69;;;6.47;89.14
55755;BME280;41674;52.290;-1.474;2023-03-19T11:31:39;101103.83;;;6.12;91.59
55755;BME280;41674;52.290;-1.474;2023-03-19T11:34:16;101105.42;;;6.60;91.56
55755;BME280;41674;52.290;-1.474;2023-03-19T11:36:39;101099.95;;;6.70;90.38
55755;BME280;41674;52.290;-1.474;2023-03-19T11:39:15;101095.08;;;6.50;90.96
55755;BME280;41674;52.290;-1.474;2023-03-19T11:41:45;101096.89;;;6.77;90.97
55755;BME280;41674;52.290;-1.474;2023-03-19T11:44:05;101100.55;;;7.02;84.11
55755;BME280;41674;52.290;-1.474;2023-03-19T11:46:39;101101.33;;;6.90;87.85
55755;BME280;41674;52.290;-1.474;2023-03-19T11:49:12;101097.55;;;7.21;84.57
55755;BME280;41674;52.290;-1.474;2023-03-19T11:51:36;101095.20;;;7.21;86.69
55755;BME280;41674;52.290;-1.474;2023-03-19T11:54:05;101096.79;;;6.94;83.38
55755;BME280;41674;52.290;-1.474;2023-03-19T11:56:37;101097.60;;;6.91;81.97
55755;BME280;41674;52.290;-1.474;2023-03-19T11:59:15;101093.47;;;6.92;82.04
55755;BME280;41674;52.290;-1.474;2023-03-19T12:01:50;101095.38;;;6.47;86.65
55755;BME280;41674;52.290;-1.474;2023-03-19T12:04:19;101094.27;;;6.76;87.93
55755;BME280;41674;52.290;-1.474;2023-03-19T12:06:37;101095.97;;;6.70;85.95
55755;BME280;41674;52.290;-1.474;2023-03-19T12:09:03;101097.62;;;6.28;86.78
55755;BME280;41674;52.290;-1.474;2023-03-19T12:11:35;101093.27;;;6.39;89.04
55755;BME280;41674;52.290;-1.474;2023-03-19T12:14:08;101088.94;;;6.94;82.88
55755;BME280;41674;52.290;-1.474;2023-03-19T12:16:35;101091.42;;;6.12;86.75
55755;BME280;41674;52.290;-1.474;2023-03-19T12:19:07;101084.37;;;6.36;83.82
55755;BME280;41674;52.290;-1.474;2023-03-19T12:21:31;101080.61;;;6.64;84.98
55755;BME280;41674;52.290;-1.474;2023-03-19T12:24:02;101079.43;;;7.18;82.58
55755;BME280;41674;52.290;-1.474;2023-03-19T12:26:34;101083.29;;;6.91;82.60
55755;BME280;41674;52.290;-1.474;2023-03-19T12:29:03;101081.70;;;7.10;84.66
55755;BME280;41674;52.290;-1.474;2023-03-19T12:31:36;101078.80;;;6.84;82.94
55755;BME280;41674;52.290;-1.474;2023-03-19T12:34:04;101084.43;;;7.26;81.68
55755;BME280;41674;52.290;-1.474;2023-03-19T12:36:28;101090.25;;;7.17;79.67
55755;BME280;41674;52.290;-1.474;2023-03-19T12:38:58;101084.94;;;7.38;80.24
55755;BME280;41674;52.290;-1.474;2023-03-19T12:41:25;101081.52;;;6.91;81.39
55755;BME280;41674;52.290;-1.474;2023-03-19T12:43:56;101087.07;;;7.66;79.22
55755;BME280;41674;52.290;-1.474;2023-03-19T12:46:27;101095.60;;;8.02;77.50
55755;BME280;41674;52.290;-1.474;2023-03-19T12:48:56;101098.64;;;7.99;79.30
55755;BME280;41674;52.290;-1.474;2023-03-19T12:51:26;101088.28;;;7.58;81.45
55755;BME280;41674;52.290;-1.474;2023-03-19T12:53:55;101088.24;;;8.19;78.50
55755;BME280;41674;52.290;-1.474;2023-03-19T12:56:33;101095.93;;;7.92;79.77
55755;BME280;41674;52.290;-1.474;2023-03-19T12:58:57;101100.58;;;6.80;81.92
55755;BME280;41674;52.290;-1.474;2023-03-19T13:01:24;101094.34;;;8.10;77.83